WYE209 KSAN-KSGU
Flight info
| Callsign | WYE209 |
|---|---|
| Flight time | 1h 17m |
| Altitude | 38000 |
| Route | ZZOOO4 MTBAL CADEZ HAKMN/N0449F370 Q73 LAKRR |
| Aircraft | CRJ7/M-SDFGIRWY/S |
Departure
| Time | 2026-05-06 03:27 |
|---|---|
| Airport | San Diego International Airport (KSAN) |
Arrival
| Time | 2026-05-06 04:44 |
|---|---|
| Airport | St George Regional Airport (KSGU) |
| Time | Latitude | Longitude | Altitude | Speed | Heading |
|---|---|---|---|---|---|
| 2026-05-06 03:08 | 32.73478 | -117.20419 | 21 ft | 0 kts | 178° |
| 2026-05-06 03:15 | 32.73494 | -117.20419 | 24 ft | 2 kts | 179° |
| 2026-05-06 03:15 | 32.73510 | -117.20420 | 22 ft | 2 kts | 173° |
| 2026-05-06 03:15 | 32.73524 | -117.20429 | 23 ft | 2 kts | 133° |
| 2026-05-06 03:15 | 32.73534 | -117.20445 | 22 ft | 2 kts | 117° |
| 2026-05-06 03:16 | 32.73537 | -117.20464 | 23 ft | 2 kts | 81° |
| 2026-05-06 03:16 | 32.73533 | -117.20483 | 22 ft | 2 kts | 61° |
| 2026-05-06 03:16 | 32.73531 | -117.20487 | 21 ft | 0 kts | 55° |
| 2026-05-06 03:17 | 32.73539 | -117.20473 | 24 ft | 4 kts | 53° |
| 2026-05-06 03:17 | 32.73568 | -117.20431 | 22 ft | 9 kts | 51° |
| 2026-05-06 03:18 | 32.73588 | -117.20360 | 21 ft | 10 kts | 99° |
| 2026-05-06 03:18 | 32.73572 | -117.20282 | 22 ft | 10 kts | 108° |
| 2026-05-06 03:18 | 32.73550 | -117.20200 | 21 ft | 11 kts | 107° |
| 2026-05-06 03:18 | 32.73529 | -117.20113 | 22 ft | 11 kts | 106° |
| 2026-05-06 03:19 | 32.73506 | -117.20020 | 21 ft | 12 kts | 106° |
| 2026-05-06 03:19 | 32.73483 | -117.19923 | 22 ft | 12 kts | 105° |
| 2026-05-06 03:19 | 32.73459 | -117.19820 | 23 ft | 14 kts | 105° |
| 2026-05-06 03:19 | 32.73430 | -117.19698 | 23 ft | 17 kts | 106° |
| 2026-05-06 03:20 | 32.73357 | -117.19401 | 23 ft | 20 kts | 106° |
| 2026-05-06 03:20 | 32.73318 | -117.19240 | 20 ft | 20 kts | 105° |
| 2026-05-06 03:20 | 32.73280 | -117.19077 | 21 ft | 21 kts | 105° |
| 2026-05-06 03:21 | 32.73241 | -117.18912 | 23 ft | 21 kts | 105° |
| 2026-05-06 03:21 | 32.73202 | -117.18745 | 22 ft | 21 kts | 105° |
| 2026-05-06 03:21 | 32.73161 | -117.18576 | 26 ft | 22 kts | 106° |
| 2026-05-06 03:21 | 32.73117 | -117.18403 | 26 ft | 22 kts | 107° |
| 2026-05-06 03:22 | 32.73073 | -117.18228 | 25 ft | 22 kts | 107° |
| 2026-05-06 03:22 | 32.73029 | -117.18052 | 27 ft | 23 kts | 107° |
| 2026-05-06 03:22 | 32.72987 | -117.17881 | 25 ft | 16 kts | 105° |
| 2026-05-06 03:22 | 32.72955 | -117.17748 | 27 ft | 17 kts | 108° |
| 2026-05-06 03:23 | 32.72950 | -117.17699 | 25 ft | 0 kts | 77° |
| 2026-05-06 03:23 | 32.72950 | -117.17698 | 25 ft | 0 kts | 77° |
| 2026-05-06 03:25 | 32.72951 | -117.17695 | 25 ft | 2 kts | 77° |
| 2026-05-06 03:25 | 32.72963 | -117.17645 | 26 ft | 11 kts | 68° |
| 2026-05-06 03:26 | 32.73029 | -117.17632 | 25 ft | 15 kts | 300° |
| 2026-05-06 03:26 | 32.73087 | -117.17862 | 25 ft | 57 kts | 287° |
| 2026-05-06 03:26 | 32.73267 | -117.18599 | 26 ft | 125 kts | 285° |
| 2026-05-06 03:26 | 32.73560 | -117.19765 | 236 ft | 160 kts | 287° |
| 2026-05-06 03:27 | 32.73884 | -117.21040 | 1028 ft | 162 kts | 287° |
| 2026-05-06 03:27 | 32.74094 | -117.21889 | 1550 ft | 162 kts | 287° |
| 2026-05-06 03:27 | 32.74406 | -117.23146 | 2281 ft | 153 kts | 286° |
| 2026-05-06 03:27 | 32.74712 | -117.24371 | 2715 ft | 163 kts | 285° |
| 2026-05-06 03:28 | 32.75015 | -117.25723 | 2980 ft | 184 kts | 286° |
| 2026-05-06 03:28 | 32.75380 | -117.27287 | 3243 ft | 208 kts | 285° |
| 2026-05-06 03:28 | 32.75769 | -117.29017 | 3742 ft | 225 kts | 285° |
| 2026-05-06 03:28 | 32.76203 | -117.30855 | 4387 ft | 234 kts | 287° |
| 2026-05-06 03:29 | 32.76382 | -117.32773 | 5110 ft | 240 kts | 258° |
| 2026-05-06 03:29 | 32.75519 | -117.34472 | 5774 ft | 250 kts | 220° |
| 2026-05-06 03:29 | 32.73927 | -117.35260 | 6425 ft | 259 kts | 183° |
| 2026-05-06 03:29 | 32.72170 | -117.34829 | 7056 ft | 263 kts | 148° |
| 2026-05-06 03:30 | 32.70892 | -117.33301 | 7677 ft | 265 kts | 114° |
| 2026-05-06 03:30 | 32.70381 | -117.31219 | 8358 ft | 264 kts | 98° |
| 2026-05-06 03:30 | 32.69914 | -117.29100 | 9049 ft | 268 kts | 111° |
| 2026-05-06 03:30 | 32.68755 | -117.27371 | 9684 ft | 275 kts | 146° |
| 2026-05-06 03:31 | 32.67028 | -117.26365 | 10288 ft | 279 kts | 158° |
| 2026-05-06 03:31 | 32.65206 | -117.25548 | 10961 ft | 280 kts | 156° |
| 2026-05-06 03:31 | 32.63732 | -117.24209 | 11512 ft | 280 kts | 123° |
| 2026-05-06 03:31 | 32.62920 | -117.22098 | 12079 ft | 283 kts | 105° |
| 2026-05-06 03:32 | 32.62535 | -117.19755 | 12250 ft | 303 kts | 94° |
| 2026-05-06 03:32 | 32.62333 | -117.17190 | 12535 ft | 320 kts | 93° |
| 2026-05-06 03:32 | 32.62168 | -117.14503 | 12942 ft | 331 kts | 93° |
| 2026-05-06 03:32 | 32.61999 | -117.11766 | 13567 ft | 335 kts | 91° |
| 2026-05-06 03:33 | 32.62279 | -117.09041 | 14138 ft | 335 kts | 73° |
| 2026-05-06 03:33 | 32.63026 | -117.06422 | 14708 ft | 336 kts | 67° |
| 2026-05-06 03:33 | 32.63917 | -117.03843 | 15241 ft | 339 kts | 65° |
| 2026-05-06 03:33 | 32.64824 | -117.01285 | 15797 ft | 342 kts | 65° |
| 2026-05-06 03:34 | 32.65749 | -116.98671 | 16329 ft | 346 kts | 66° |
| 2026-05-06 03:34 | 32.66590 | -116.95986 | 16845 ft | 350 kts | 75° |
| 2026-05-06 03:34 | 32.66896 | -116.93109 | 17353 ft | 354 kts | 86° |
| 2026-05-06 03:34 | 32.66929 | -116.90169 | 17875 ft | 357 kts | 89° |
| 2026-05-06 03:35 | 32.66917 | -116.87283 | 18372 ft | 360 kts | 89° |
| 2026-05-06 03:35 | 32.66912 | -116.84290 | 18769 ft | 364 kts | 88° |
| 2026-05-06 03:35 | 32.66947 | -116.81267 | 19174 ft | 367 kts | 86° |
| 2026-05-06 03:35 | 32.67437 | -116.78314 | 19546 ft | 367 kts | 63° |
| 2026-05-06 03:36 | 32.68913 | -116.75878 | 19922 ft | 364 kts | 41° |
| 2026-05-06 03:36 | 32.70839 | -116.73918 | 20329 ft | 366 kts | 35° |
| 2026-05-06 03:36 | 32.72935 | -116.72285 | 20710 ft | 366 kts | 24° |
| 2026-05-06 03:36 | 32.75274 | -116.71092 | 21129 ft | 366 kts | 19° |
| 2026-05-06 03:37 | 32.77663 | -116.70048 | 21573 ft | 367 kts | 18° |
| 2026-05-06 03:37 | 32.80068 | -116.68998 | 21958 ft | 369 kts | 18° |
| 2026-05-06 03:37 | 32.82434 | -116.67900 | 22323 ft | 372 kts | 20° |
| 2026-05-06 03:37 | 32.84833 | -116.66720 | 22688 ft | 375 kts | 20° |
| 2026-05-06 03:38 | 32.87249 | -116.65530 | 23049 ft | 377 kts | 20° |
| 2026-05-06 03:38 | 32.89681 | -116.64335 | 23400 ft | 379 kts | 20° |
| 2026-05-06 03:38 | 32.92128 | -116.63133 | 23726 ft | 382 kts | 20° |
| 2026-05-06 03:38 | 32.94589 | -116.61924 | 23996 ft | 384 kts | 20° |
| 2026-05-06 03:39 | 32.97036 | -116.60727 | 24260 ft | 386 kts | 20° |
| 2026-05-06 03:39 | 32.99528 | -116.59505 | 24524 ft | 389 kts | 20° |
| 2026-05-06 03:39 | 33.02027 | -116.58240 | 24787 ft | 392 kts | 21° |
| 2026-05-06 03:39 | 33.04527 | -116.56935 | 25040 ft | 394 kts | 20° |
| 2026-05-06 03:40 | 33.07048 | -116.55618 | 25290 ft | 396 kts | 21° |
| 2026-05-06 03:40 | 33.09539 | -116.54319 | 25506 ft | 399 kts | 21° |
| 2026-05-06 03:40 | 33.12002 | -116.53031 | 25740 ft | 401 kts | 20° |
| 2026-05-06 03:40 | 33.14563 | -116.51694 | 25980 ft | 403 kts | 20° |
| 2026-05-06 03:41 | 33.17135 | -116.50344 | 26178 ft | 405 kts | 20° |
| 2026-05-06 03:41 | 33.19725 | -116.48992 | 26406 ft | 407 kts | 20° |
| 2026-05-06 03:41 | 33.22328 | -116.47629 | 26625 ft | 409 kts | 20° |
| 2026-05-06 03:41 | 33.24909 | -116.46272 | 26827 ft | 412 kts | 20° |
| 2026-05-06 03:42 | 33.27537 | -116.44893 | 27054 ft | 414 kts | 21° |
| 2026-05-06 03:42 | 33.30164 | -116.43445 | 27218 ft | 418 kts | 21° |
| 2026-05-06 03:42 | 33.32843 | -116.42032 | 27229 ft | 424 kts | 20° |
| 2026-05-06 03:42 | 33.35578 | -116.40636 | 27230 ft | 431 kts | 20° |
| 2026-05-06 03:43 | 33.38285 | -116.39028 | 27265 ft | 440 kts | 32° |
| 2026-05-06 03:43 | 33.40567 | -116.36660 | 27401 ft | 445 kts | 43° |
| 2026-05-06 03:43 | 33.42679 | -116.33947 | 27647 ft | 447 kts | 48° |
| 2026-05-06 03:43 | 33.44540 | -116.31026 | 27896 ft | 448 kts | 53° |
| 2026-05-06 03:44 | 33.46290 | -116.27935 | 28145 ft | 448 kts | 54° |
| 2026-05-06 03:44 | 33.48034 | -116.24839 | 28360 ft | 448 kts | 54° |
| 2026-05-06 03:44 | 33.49813 | -116.21772 | 28594 ft | 448 kts | 52° |
| 2026-05-06 03:44 | 33.51604 | -116.18788 | 28818 ft | 448 kts | 52° |
| 2026-05-06 03:45 | 33.53398 | -116.15797 | 29087 ft | 447 kts | 52° |
| 2026-05-06 03:45 | 33.55207 | -116.12766 | 29364 ft | 446 kts | 52° |
| 2026-05-06 03:45 | 33.57009 | -116.09746 | 29642 ft | 445 kts | 52° |
| 2026-05-06 03:45 | 33.58808 | -116.06729 | 29925 ft | 444 kts | 52° |
| 2026-05-06 03:46 | 33.60636 | -116.03815 | 30163 ft | 441 kts | 46° |
| 2026-05-06 03:46 | 33.62745 | -116.01167 | 30417 ft | 438 kts | 41° |
| 2026-05-06 03:46 | 33.64996 | -115.98711 | 30663 ft | 436 kts | 40° |
| 2026-05-06 03:46 | 33.67248 | -115.96292 | 30887 ft | 434 kts | 40° |
| 2026-05-06 03:47 | 33.69461 | -115.93831 | 31129 ft | 433 kts | 41° |
| 2026-05-06 03:47 | 33.71591 | -115.91368 | 31350 ft | 432 kts | 42° |
| 2026-05-06 03:47 | 33.73753 | -115.88867 | 31564 ft | 431 kts | 41° |
| 2026-05-06 03:47 | 33.75915 | -115.86382 | 31773 ft | 429 kts | 41° |
| 2026-05-06 03:48 | 33.78030 | -115.83943 | 31985 ft | 428 kts | 41° |
| 2026-05-06 03:48 | 33.80150 | -115.81493 | 32201 ft | 426 kts | 41° |
| 2026-05-06 03:48 | 33.82284 | -115.79027 | 32413 ft | 425 kts | 41° |
| 2026-05-06 03:48 | 33.84412 | -115.76569 | 32613 ft | 423 kts | 41° |
| 2026-05-06 03:49 | 33.86505 | -115.74147 | 32778 ft | 423 kts | 41° |
| 2026-05-06 03:49 | 33.88622 | -115.71695 | 32951 ft | 422 kts | 41° |
| 2026-05-06 03:49 | 33.90732 | -115.69245 | 33130 ft | 421 kts | 42° |
| 2026-05-06 03:49 | 33.92819 | -115.66781 | 33284 ft | 420 kts | 42° |
| 2026-05-06 03:50 | 33.94905 | -115.64315 | 33422 ft | 420 kts | 43° |
| 2026-05-06 03:50 | 33.96994 | -115.61848 | 33552 ft | 420 kts | 42° |
| 2026-05-06 03:50 | 33.99061 | -115.59452 | 33699 ft | 421 kts | 42° |
| 2026-05-06 03:50 | 34.01176 | -115.57009 | 33906 ft | 421 kts | 42° |
| 2026-05-06 03:51 | 34.03278 | -115.54558 | 34088 ft | 420 kts | 42° |
| 2026-05-06 03:51 | 34.05373 | -115.52108 | 34267 ft | 420 kts | 42° |
| 2026-05-06 03:51 | 34.07475 | -115.49661 | 34443 ft | 419 kts | 42° |
| 2026-05-06 03:51 | 34.09505 | -115.47292 | 34620 ft | 418 kts | 42° |
| 2026-05-06 03:52 | 34.11596 | -115.44853 | 34800 ft | 417 kts | 42° |
| 2026-05-06 03:52 | 34.13677 | -115.42420 | 34981 ft | 416 kts | 42° |
| 2026-05-06 03:52 | 34.15755 | -115.39990 | 35171 ft | 415 kts | 42° |
| 2026-05-06 03:52 | 34.17880 | -115.37732 | 35351 ft | 410 kts | 31° |
| 2026-05-06 03:53 | 34.20353 | -115.36110 | 35545 ft | 403 kts | 20° |
| 2026-05-06 03:53 | 34.22934 | -115.34822 | 35734 ft | 399 kts | 18° |
| 2026-05-06 03:53 | 34.25525 | -115.33646 | 35929 ft | 397 kts | 17° |
| 2026-05-06 03:53 | 34.28105 | -115.32659 | 36056 ft | 394 kts | 11° |
| 2026-05-06 03:54 | 34.30788 | -115.32058 | 36184 ft | 391 kts | 4° |
| 2026-05-06 03:54 | 34.33488 | -115.31678 | 36304 ft | 390 kts | 3° |
| 2026-05-06 03:54 | 34.36173 | -115.31270 | 36428 ft | 390 kts | 5° |
| 2026-05-06 03:54 | 34.38850 | -115.30730 | 36554 ft | 389 kts | 7° |
| 2026-05-06 03:55 | 34.41509 | -115.30141 | 36679 ft | 388 kts | 7° |
| 2026-05-06 03:55 | 34.44130 | -115.29576 | 36776 ft | 388 kts | 6° |
| 2026-05-06 03:55 | 34.49473 | -115.28511 | 36839 ft | 391 kts | 6° |
| 2026-05-06 03:56 | 34.54863 | -115.27464 | 36865 ft | 393 kts | 6° |
| 2026-05-06 03:56 | 34.60227 | -115.26413 | 36871 ft | 396 kts | 7° |
| 2026-05-06 03:57 | 34.65674 | -115.25318 | 36868 ft | 398 kts | 7° |
| 2026-05-06 03:57 | 34.71148 | -115.24216 | 36872 ft | 400 kts | 7° |
| 2026-05-06 03:58 | 34.76618 | -115.23113 | 36874 ft | 402 kts | 8° |
| 2026-05-06 03:58 | 34.82156 | -115.21992 | 36875 ft | 405 kts | 8° |
| 2026-05-06 03:59 | 34.87671 | -115.20876 | 36872 ft | 407 kts | 8° |
| 2026-05-06 03:59 | 34.93273 | -115.19744 | 36881 ft | 409 kts | 7° |
| 2026-05-06 04:00 | 34.98909 | -115.18600 | 36906 ft | 412 kts | 8° |
| 2026-05-06 04:00 | 35.04571 | -115.17434 | 36902 ft | 414 kts | 8° |
| 2026-05-06 04:01 | 35.10221 | -115.16249 | 36907 ft | 416 kts | 9° |
| 2026-05-06 04:01 | 35.15886 | -115.15086 | 36904 ft | 418 kts | 8° |
| 2026-05-06 04:02 | 35.21593 | -115.13938 | 36906 ft | 420 kts | 8° |
| 2026-05-06 04:02 | 35.27339 | -115.12816 | 36909 ft | 421 kts | 10° |
| 2026-05-06 04:03 | 35.33135 | -115.11627 | 36915 ft | 423 kts | 9° |
| 2026-05-06 04:03 | 35.38956 | -115.10437 | 36918 ft | 425 kts | 9° |
| 2026-05-06 04:04 | 35.44677 | -115.09164 | 36919 ft | 425 kts | 17° |
| 2026-05-06 04:04 | 35.47378 | -115.07731 | 36923 ft | 424 kts | 32° |
| 2026-05-06 04:04 | 35.49868 | -115.05805 | 36931 ft | 423 kts | 33° |
| 2026-05-06 04:05 | 35.54745 | -115.01739 | 36926 ft | 424 kts | 36° |
| 2026-05-06 04:05 | 35.59173 | -114.96994 | 36917 ft | 424 kts | 49° |
| 2026-05-06 04:06 | 35.62954 | -114.91427 | 36906 ft | 425 kts | 50° |
| 2026-05-06 04:06 | 35.66812 | -114.85983 | 36905 ft | 425 kts | 47° |
| 2026-05-06 04:07 | 35.70784 | -114.80594 | 36906 ft | 426 kts | 47° |
| 2026-05-06 04:07 | 35.74690 | -114.75240 | 36865 ft | 426 kts | 47° |
| 2026-05-06 04:08 | 35.78652 | -114.69801 | 36861 ft | 427 kts | 47° |
| 2026-05-06 04:08 | 35.82591 | -114.64393 | 36861 ft | 427 kts | 48° |
| 2026-05-06 04:09 | 35.86542 | -114.58954 | 36838 ft | 425 kts | 48° |
| 2026-05-06 04:09 | 35.90476 | -114.53533 | 36828 ft | 423 kts | 48° |
| 2026-05-06 04:10 | 35.94398 | -114.48123 | 36812 ft | 422 kts | 48° |
| 2026-05-06 04:10 | 35.98278 | -114.42763 | 36796 ft | 421 kts | 47° |
| 2026-05-06 04:11 | 36.02135 | -114.37453 | 36799 ft | 419 kts | 48° |
| 2026-05-06 04:11 | 36.06004 | -114.32077 | 36800 ft | 418 kts | 47° |
| 2026-05-06 04:12 | 36.10456 | -114.27524 | 36791 ft | 415 kts | 36° |
| 2026-05-06 04:12 | 36.15321 | -114.23710 | 36801 ft | 413 kts | 28° |
| 2026-05-06 04:13 | 36.20364 | -114.20414 | 36802 ft | 412 kts | 30° |
| 2026-05-06 04:13 | 36.25314 | -114.16864 | 36801 ft | 410 kts | 30° |
| 2026-05-06 04:14 | 36.30244 | -114.13373 | 36802 ft | 409 kts | 30° |
| 2026-05-06 04:14 | 36.35192 | -114.09899 | 36810 ft | 408 kts | 30° |
| 2026-05-06 04:15 | 36.40094 | -114.06456 | 36813 ft | 407 kts | 30° |
| 2026-05-06 04:15 | 36.42534 | -114.04736 | 36529 ft | 399 kts | 30° |
| 2026-05-06 04:15 | 36.44891 | -114.03079 | 36214 ft | 390 kts | 30° |
| 2026-05-06 04:16 | 36.47228 | -114.01432 | 35844 ft | 383 kts | 31° |
| 2026-05-06 04:16 | 36.49526 | -113.99812 | 35440 ft | 377 kts | 31° |
| 2026-05-06 04:16 | 36.51794 | -113.98210 | 34921 ft | 374 kts | 31° |
| 2026-05-06 04:16 | 36.54077 | -113.96598 | 33952 ft | 382 kts | 32° |
| 2026-05-06 04:17 | 36.56355 | -113.94979 | 33478 ft | 374 kts | 32° |
| 2026-05-06 04:17 | 36.58575 | -113.93411 | 32969 ft | 367 kts | 32° |
| 2026-05-06 04:17 | 36.60772 | -113.91859 | 32441 ft | 360 kts | 32° |
| 2026-05-06 04:17 | 36.62933 | -113.90333 | 31923 ft | 354 kts | 32° |
| 2026-05-06 04:18 | 36.65030 | -113.88842 | 31411 ft | 350 kts | 32° |
| 2026-05-06 04:18 | 36.67134 | -113.87344 | 30925 ft | 348 kts | 32° |
| 2026-05-06 04:18 | 36.69231 | -113.85856 | 30428 ft | 345 kts | 32° |
| 2026-05-06 04:18 | 36.71314 | -113.84379 | 29939 ft | 344 kts | 32° |
| 2026-05-06 04:19 | 36.73386 | -113.82907 | 29395 ft | 342 kts | 32° |
| 2026-05-06 04:19 | 36.75449 | -113.81441 | 28827 ft | 341 kts | 32° |
| 2026-05-06 04:19 | 36.77502 | -113.79974 | 28286 ft | 340 kts | 32° |
| 2026-05-06 04:19 | 36.79551 | -113.78513 | 27768 ft | 339 kts | 32° |
| 2026-05-06 04:20 | 36.81598 | -113.77057 | 27246 ft | 338 kts | 32° |
| 2026-05-06 04:20 | 36.83610 | -113.75620 | 26749 ft | 338 kts | 32° |
| 2026-05-06 04:20 | 36.85629 | -113.74177 | 26254 ft | 338 kts | 32° |
| 2026-05-06 04:20 | 36.87655 | -113.72729 | 25779 ft | 337 kts | 31° |
| 2026-05-06 04:21 | 36.89664 | -113.71295 | 25316 ft | 334 kts | 31° |
| 2026-05-06 04:21 | 36.91673 | -113.69855 | 24834 ft | 332 kts | 31° |
| 2026-05-06 04:21 | 36.93666 | -113.68426 | 24370 ft | 330 kts | 31° |
| 2026-05-06 04:21 | 36.95658 | -113.67009 | 23914 ft | 328 kts | 30° |
| 2026-05-06 04:22 | 36.97641 | -113.65606 | 23462 ft | 327 kts | 30° |
| 2026-05-06 04:22 | 36.99617 | -113.64208 | 22924 ft | 326 kts | 30° |
| 2026-05-06 04:22 | 37.01723 | -113.63176 | 22406 ft | 327 kts | 14° |
| 2026-05-06 04:23 | 37.06167 | -113.62156 | 21360 ft | 327 kts | 11° |
| 2026-05-06 04:23 | 37.08417 | -113.61706 | 20850 ft | 327 kts | 11° |
| 2026-05-06 04:23 | 37.10667 | -113.61267 | 20345 ft | 328 kts | 10° |
| 2026-05-06 04:23 | 37.12924 | -113.60825 | 19843 ft | 328 kts | 10° |
| 2026-05-06 04:24 | 37.15134 | -113.60386 | 19352 ft | 329 kts | 10° |
| 2026-05-06 04:24 | 37.17397 | -113.59937 | 18862 ft | 329 kts | 10° |
| 2026-05-06 04:24 | 37.19663 | -113.59487 | 18387 ft | 330 kts | 10° |
| 2026-05-06 04:24 | 37.21935 | -113.59033 | 17877 ft | 331 kts | 10° |
| 2026-05-06 04:25 | 37.24207 | -113.58569 | 17353 ft | 331 kts | 10° |
| 2026-05-06 04:25 | 37.26476 | -113.58086 | 16806 ft | 330 kts | 10° |
| 2026-05-06 04:25 | 37.28739 | -113.57590 | 16256 ft | 330 kts | 10° |
| 2026-05-06 04:25 | 37.30994 | -113.57080 | 15743 ft | 328 kts | 10° |
| 2026-05-06 04:26 | 37.33202 | -113.56562 | 15231 ft | 318 kts | 10° |
| 2026-05-06 04:26 | 37.35341 | -113.56047 | 14720 ft | 309 kts | 10° |
| 2026-05-06 04:26 | 37.37423 | -113.55532 | 14243 ft | 302 kts | 10° |
| 2026-05-06 04:26 | 37.39460 | -113.55003 | 13768 ft | 296 kts | 10° |
| 2026-05-06 04:27 | 37.41433 | -113.54462 | 13318 ft | 294 kts | 10° |
| 2026-05-06 04:27 | 37.43379 | -113.53915 | 13093 ft | 291 kts | 11° |
| 2026-05-06 04:27 | 37.45327 | -113.53363 | 12999 ft | 283 kts | 11° |
| 2026-05-06 04:27 | 37.47223 | -113.52821 | 12950 ft | 278 kts | 10° |
| 2026-05-06 04:28 | 37.49125 | -113.52275 | 12937 ft | 283 kts | 11° |
| 2026-05-06 04:28 | 37.51059 | -113.51723 | 12935 ft | 287 kts | 11° |
| 2026-05-06 04:28 | 37.53016 | -113.51166 | 12936 ft | 290 kts | 11° |
| 2026-05-06 04:28 | 37.54995 | -113.50602 | 12933 ft | 293 kts | 11° |
| 2026-05-06 04:29 | 37.56993 | -113.50035 | 12937 ft | 295 kts | 11° |
| 2026-05-06 04:29 | 37.59006 | -113.49465 | 12940 ft | 298 kts | 11° |
| 2026-05-06 04:29 | 37.61034 | -113.48884 | 12939 ft | 299 kts | 11° |
| 2026-05-06 04:29 | 37.63059 | -113.48309 | 12929 ft | 298 kts | 11° |
| 2026-05-06 04:30 | 37.65081 | -113.47737 | 12930 ft | 297 kts | 11° |
| 2026-05-06 04:30 | 37.67104 | -113.47167 | 12856 ft | 299 kts | 11° |
| 2026-05-06 04:30 | 37.68997 | -113.46206 | 12776 ft | 296 kts | 35° |
| 2026-05-06 04:30 | 37.70271 | -113.44226 | 12681 ft | 300 kts | 57° |
| 2026-05-06 04:31 | 37.71271 | -113.41942 | 12646 ft | 303 kts | 59° |
| 2026-05-06 04:31 | 37.72153 | -113.39501 | 12539 ft | 310 kts | 71° |
| 2026-05-06 04:31 | 37.72316 | -113.36868 | 12483 ft | 317 kts | 96° |
| 2026-05-06 04:31 | 37.71587 | -113.34243 | 12467 ft | 320 kts | 121° |
| 2026-05-06 04:32 | 37.70119 | -113.32139 | 12464 ft | 321 kts | 138° |
| 2026-05-06 04:32 | 37.68458 | -113.30334 | 12460 ft | 321 kts | 139° |
| 2026-05-06 04:32 | 37.66851 | -113.28378 | 12469 ft | 321 kts | 132° |
| 2026-05-06 04:32 | 37.65429 | -113.26213 | 12461 ft | 320 kts | 126° |
| 2026-05-06 04:33 | 37.64170 | -113.23898 | 12461 ft | 319 kts | 120° |
| 2026-05-06 04:33 | 37.63039 | -113.21491 | 12463 ft | 319 kts | 118° |
| 2026-05-06 04:33 | 37.61934 | -113.19123 | 12459 ft | 314 kts | 126° |
| 2026-05-06 04:33 | 37.60275 | -113.17425 | 12463 ft | 308 kts | 158° |
| 2026-05-06 04:34 | 37.58223 | -113.16816 | 12462 ft | 302 kts | 174° |
| 2026-05-06 04:34 | 37.56125 | -113.16600 | 12452 ft | 305 kts | 179° |
| 2026-05-06 04:34 | 37.53997 | -113.16694 | 12454 ft | 307 kts | 193° |
| 2026-05-06 04:34 | 37.51942 | -113.17442 | 12456 ft | 310 kts | 202° |
| 2026-05-06 04:35 | 37.49903 | -113.18376 | 12436 ft | 314 kts | 202° |
| 2026-05-06 04:35 | 37.47851 | -113.19332 | 12425 ft | 311 kts | 203° |
| 2026-05-06 04:35 | 37.45885 | -113.20443 | 11932 ft | 313 kts | 211° |
| 2026-05-06 04:35 | 37.44020 | -113.21838 | 11329 ft | 310 kts | 214° |
| 2026-05-06 04:36 | 37.42213 | -113.23231 | 10739 ft | 308 kts | 214° |
| 2026-05-06 04:36 | 37.40419 | -113.24600 | 10264 ft | 300 kts | 214° |
| 2026-05-06 04:36 | 37.38676 | -113.25927 | 9947 ft | 287 kts | 214° |
| 2026-05-06 04:36 | 37.36995 | -113.27200 | 9628 ft | 277 kts | 214° |
| 2026-05-06 04:37 | 37.35364 | -113.28400 | 9321 ft | 267 kts | 213° |
| 2026-05-06 04:37 | 37.33784 | -113.29554 | 9029 ft | 258 kts | 213° |
| 2026-05-06 04:37 | 37.32258 | -113.30666 | 8746 ft | 247 kts | 213° |
| 2026-05-06 04:37 | 37.30812 | -113.31724 | 8506 ft | 234 kts | 213° |
| 2026-05-06 04:38 | 37.29433 | -113.32729 | 8259 ft | 228 kts | 214° |
| 2026-05-06 04:38 | 37.28081 | -113.33722 | 8048 ft | 228 kts | 212° |
| 2026-05-06 04:38 | 37.26707 | -113.34724 | 7801 ft | 229 kts | 213° |
| 2026-05-06 04:38 | 37.25318 | -113.35736 | 7502 ft | 232 kts | 213° |
| 2026-05-06 04:39 | 37.23925 | -113.36751 | 7231 ft | 229 kts | 212° |
| 2026-05-06 04:39 | 37.22609 | -113.37706 | 6957 ft | 217 kts | 212° |
| 2026-05-06 04:39 | 37.21341 | -113.38629 | 6696 ft | 210 kts | 213° |
| 2026-05-06 04:39 | 37.20098 | -113.39537 | 6433 ft | 200 kts | 212° |
| 2026-05-06 04:40 | 37.19004 | -113.40330 | 6223 ft | 161 kts | 211° |
| 2026-05-06 04:40 | 37.18084 | -113.40990 | 6013 ft | 151 kts | 213° |
| 2026-05-06 04:40 | 37.17203 | -113.41613 | 5803 ft | 144 kts | 212° |
| 2026-05-06 04:40 | 37.16320 | -113.42240 | 5578 ft | 148 kts | 213° |
| 2026-05-06 04:41 | 37.15404 | -113.42883 | 5352 ft | 153 kts | 212° |
| 2026-05-06 04:41 | 37.14493 | -113.43597 | 5154 ft | 155 kts | 219° |
| 2026-05-06 04:41 | 37.13653 | -113.44416 | 5096 ft | 149 kts | 219° |
| 2026-05-06 04:41 | 37.12853 | -113.45207 | 4844 ft | 150 kts | 217° |
| 2026-05-06 04:42 | 37.12010 | -113.45969 | 4594 ft | 148 kts | 216° |
| 2026-05-06 04:42 | 37.11162 | -113.46673 | 4298 ft | 145 kts | 214° |
| 2026-05-06 04:42 | 37.10321 | -113.47364 | 3963 ft | 149 kts | 215° |
| 2026-05-06 04:42 | 37.09415 | -113.47976 | 3735 ft | 148 kts | 204° |
| 2026-05-06 04:43 | 37.08445 | -113.48430 | 3596 ft | 153 kts | 205° |
| 2026-05-06 04:43 | 37.07496 | -113.48986 | 3421 ft | 147 kts | 206° |
| 2026-05-06 04:43 | 37.06571 | -113.49473 | 3209 ft | 141 kts | 208° |
| 2026-05-06 04:43 | 37.05650 | -113.49954 | 3040 ft | 145 kts | 206° |
| 2026-05-06 04:44 | 37.04756 | -113.50434 | 2868 ft | 137 kts | 206° |
| 2026-05-06 04:44 | 37.04011 | -113.50834 | 2841 ft | 91 kts | 203° |
| 2026-05-06 04:44 | 37.03543 | -113.51082 | 2839 ft | 64 kts | 203° |
| 2026-05-06 04:44 | 37.03254 | -113.51237 | 2840 ft | 35 kts | 204° |
| 2026-05-06 04:45 | 37.03159 | -113.51236 | 2841 ft | 11 kts | 143° |
| 2026-05-06 04:45 | 37.03135 | -113.51175 | 2841 ft | 0 kts | 110° |
| 2026-05-06 04:45 | 37.03135 | -113.51174 | 2841 ft | 1 kts | 110° |
| 2026-05-06 04:45 | 37.03120 | -113.51124 | 2840 ft | 11 kts | 108° |
| 2026-05-06 04:46 | 37.03114 | -113.51018 | 2841 ft | 14 kts | 85° |
| 2026-05-06 04:46 | 37.03105 | -113.50960 | 2841 ft | 0 kts | 113° |